Time;durP1;ratioP1;P1;durP2;ratioP2;P2;SDS_P1;SDS_P2;PMS_P1;PMS_P2;Temp;Humidity;BMP_temperature;BMP_pressure;BME280_temperature;BME280_humidity;BME280_pressure;Samples;Min_cycle;Max_cycle;Signal;HPM_P1;HPM_P2
2023/06/23 00:01:02;;;;;;;13.20;6.70;;;16.30;99.90;;;;;;1889200;75;25361;-92
2023/06/23 00:54:00;;;;;;;9.17;4.13;;;16.00;99.90;;;;;;1941390;72;27590;-90
2023/06/23 00:56:51;;;;;;;6.90;3.70;;;15.80;99.90;;;;;;1962938;72;25712;-90
2023/06/23 00:59:40;;;;;;;5.97;3.90;;;15.80;99.90;;;;;;1959768;72;25200;-90
2023/06/23 01:02:28;;;;;;;6.87;3.80;;;15.90;99.90;;;;;;1950712;72;25663;-90
2023/06/23 01:05:19;;;;;;;6.80;3.80;;;15.80;99.90;;;;;;1955281;73;25265;-90
2023/06/23 01:08:18;;;;;;;9.10;3.83;;;15.80;99.90;;;;;;1944138;72;25164;-90
2023/06/23 01:11:12;;;;;;;9.67;3.93;;;15.70;99.90;;;;;;1945869;72;25248;-90
2023/06/23 01:14:04;;;;;;;9.83;3.83;;;15.70;99.90;;;;;;1957321;73;25263;-90
2023/06/23 01:16:58;;;;;;;5.43;4.00;;;15.60;99.90;;;;;;1938193;72;25272;-90
2023/06/23 01:19:53;;;;;;;6.37;4.07;;;15.50;99.90;;;;;;1937422;72;25301;-90
2023/06/23 01:32:35;;;;;;;6.07;3.80;;;15.20;99.90;;;;;;1968399;71;26365;-90
2023/06/23 01:35:26;;;;;;;8.20;4.10;;;15.10;99.90;;;;;;1906694;74;25323;-90
2023/06/23 01:41:17;;;;;;;7.63;4.30;;;14.90;99.90;;;;;;1936750;72;28309;-89
2023/06/23 01:57:37;;;;;;;8.20;3.50;;;14.60;99.90;;;;;;1886644;72;27048;-89
2023/06/23 02:04:20;;;;;;;5.53;4.20;;;14.80;99.90;;;;;;1999641;71;27016;-90
2023/06/23 02:10:03;;;;;;;4.83;3.53;;;14.90;99.90;;;;;;1955683;72;27622;-90
2023/06/23 02:15:45;;;;;;;7.50;3.87;;;15.10;99.90;;;;;;2047473;69;27519;-89
2023/06/23 02:18:35;;;;;;;3.87;3.33;;;15.10;99.90;;;;;;1980112;71;25155;-89
2023/06/23 02:21:27;;;;;;;10.43;3.50;;;15.10;99.90;;;;;;1988976;71;25187;-92
2023/06/23 02:24:19;;;;;;;3.63;3.00;;;15.00;99.90;;;;;;1988598;71;25805;-92
2023/06/23 02:27:10;;;;;;;6.20;3.30;;;14.90;99.90;;;;;;1980245;72;25194;-92
2023/06/23 02:30:02;;;;;;;5.20;3.37;;;14.90;99.90;;;;;;1988130;71;25329;-92
2023/06/23 02:32:52;;;;;;;4.03;3.20;;;14.80;99.90;;;;;;1927222;73;25238;-92
2023/06/23 02:35:46;;;;;;;4.10;3.20;;;14.80;99.90;;;;;;1929937;74;26009;-92
2023/06/23 02:38:40;;;;;;;3.67;3.00;;;14.80;99.90;;;;;;1953925;73;25189;-92
2023/06/23 02:44:15;;;;;;;4.47;3.03;;;14.80;99.90;;;;;;1913432;72;27133;-90
2023/06/23 02:49:59;;;;;;;5.37;3.00;;;14.80;99.90;;;;;;1951755;72;27164;-90
2023/06/23 02:52:52;;;;;;;3.77;3.30;;;14.90;99.90;;;;;;1927037;73;25209;-90
2023/06/23 02:55:44;;;;;;;3.50;3.20;;;14.90;99.90;;;;;;1924339;73;25220;-90
2023/06/23 02:58:35;;;;;;;3.77;3.30;;;14.90;99.90;;;;;;1916391;73;25167;-90
2023/06/23 03:33:51;;;;;;;8.13;2.57;;;15.10;99.90;;;;;;1910717;74;28177;-90
2023/06/23 03:39:43;;;;;;;3.70;2.13;;;16.90;99.90;;;;;;1945342;72;27511;-90
2023/06/23 03:42:41;;;;;;;2.40;2.20;;;17.10;99.90;;;;;;1939183;73;25301;-90
2023/06/23 03:45:34;;;;;;;2.80;2.10;;;17.10;99.90;;;;;;1934042;73;25283;-90
2023/06/23 03:48:31;;;;;;;4.27;2.47;;;17.40;99.90;;;;;;1944221;72;25317;-90
2023/06/23 03:51:23;;;;;;;4.23;2.30;;;17.90;99.90;;;;;;1938485;72;25658;-90
2023/06/23 03:54:17;;;;;;;2.43;2.20;;;18.00;99.90;;;;;;1944530;73;25265;-90
2023/06/23 03:57:16;;;;;;;3.50;2.10;;;18.10;99.90;;;;;;1935318;72;25737;-90
2023/06/23 04:00:14;;;;;;;2.40;2.20;;;18.10;99.90;;;;;;1935966;72;25220;-91
2023/06/23 04:03:11;;;;;;;6.23;2.17;;;18.10;99.90;;;;;;1917581;73;25278;-91
2023/06/23 04:42:53;;;;;;;3.37;2.10;;;19.30;99.90;;;;;;2066172;68;26783;-90
2023/06/23 04:45:49;;;;;;;4.97;2.20;;;18.70;99.90;;;;;;2045891;69;25219;-90
2023/06/23 04:52:33;;;;;;;3.07;1.97;;;18.80;99.90;;;;;;1950784;72;33350;-91
2023/06/23 04:58:38;;;;;;;2.63;2.00;;;18.90;99.90;;;;;;1945251;72;28088;-90
2023/06/23 05:01:28;;;;;;;3.07;2.00;;;19.10;99.90;;;;;;1913920;73;25233;-90
2023/06/23 05:04:19;;;;;;;2.13;1.93;;;19.10;99.90;;;;;;1916675;73;25287;-90
2023/06/23 05:07:10;;;;;;;2.73;1.90;;;19.50;99.90;;;;;;1939306;73;25608;-90
2023/06/23 05:10:01;;;;;;;2.07;1.90;;;19.50;99.90;;;;;;1929851;73;25210;-90
2023/06/23 05:12:55;;;;;;;3.60;2.10;;;19.50;99.90;;;;;;1918571;73;25214;-90
2023/06/23 05:15:45;;;;;;;3.70;2.00;;;19.50;99.90;;;;;;1918871;73;25337;-90
2023/06/23 05:32:50;;;;;;;6.57;1.90;;;20.00;99.90;;;;;;1958005;72;26296;-90
2023/06/23 05:38:28;;;;;;;1.77;1.63;;;19.10;99.90;;;;;;1963605;72;27050;-90
2023/06/23 05:41:17;;;;;;;3.43;1.90;;;19.40;99.90;;;;;;1928181;73;25656;-90
2023/06/23 05:44:06;;;;;;;2.23;1.87;;;20.00;99.90;;;;;;1913094;73;25279;-91
2023/06/23 06:04:25;;;;;;;2.30;1.70;;;19.70;99.90;;;;;;1944184;72;27641;-90
2023/06/23 06:07:16;;;;;;;1.70;1.60;;;20.10;99.90;;;;;;1922116;73;25164;-90
2023/06/23 06:10:07;;;;;;;2.03;1.67;;;19.90;99.90;;;;;;1931631;73;25187;-90
2023/06/23 06:12:57;;;;;;;3.80;1.70;;;20.30;99.90;;;;;;1922623;73;25254;-91
2023/06/23 06:15:48;;;;;;;2.67;1.67;;;20.50;99.90;;;;;;1916766;73;25736;-90
2023/06/23 06:18:39;;;;;;;1.97;1.80;;;20.30;99.90;;;;;;1926102;73;25289;-91
2023/06/23 06:21:29;;;;;;;2.10;1.87;;;20.10;99.90;;;;;;1925740;73;25229;-91
2023/06/23 06:24:20;;;;;;;1.63;1.53;;;20.10;99.90;;;;;;1924937;73;25202;-91
2023/06/23 06:46:30;;;;;;;1.93;1.50;;;19.90;99.90;;;;;;1986880;71;27332;-91
2023/06/23 06:49:22;;;;;;;1.80;1.70;;;20.00;99.90;;;;;;1959517;72;25191;-91
2023/06/23 06:52:12;;;;;;;2.50;1.50;;;20.00;99.90;;;;;;2034406;69;25235;-90
2023/06/23 06:55:17;;;;;;;1.93;1.40;;;20.00;99.90;;;;;;2038738;69;25199;-91
2023/06/23 06:58:06;;;;;;;2.77;1.60;;;20.20;99.90;;;;;;2047504;69;25622;-91
2023/06/23 07:00:57;;;;;;;1.70;1.60;;;20.30;99.90;;;;;;2040003;69;25131;-91
2023/06/23 07:03:48;;;;;;;1.50;1.40;;;20.10;99.90;;;;;;2053355;69;25198;-91
2023/06/23 07:06:41;;;;;;;2.73;1.57;;;20.10;99.90;;;;;;2036264;69;25182;-90
2023/06/23 07:09:30;;;;;;;2.07;1.50;;;20.00;99.90;;;;;;2049002;69;25473;-91
2023/06/23 07:12:19;;;;;;;2.13;1.90;;;20.30;99.90;;;;;;2048059;69;25187;-91
2023/06/23 07:15:09;;;;;;;1.80;1.70;;;20.40;99.90;;;;;;2039629;69;25751;-91
2023/06/23 07:17:58;;;;;;;4.73;1.57;;;20.70;99.90;;;;;;2040233;69;25786;-91
2023/06/23 07:21:10;;;;;;;2.40;1.53;;;20.60;99.90;;;;;;2043560;69;25220;-91
2023/06/23 07:23:59;;;;;;;1.80;1.40;;;20.70;99.90;;;;;;2038397;69;25489;-91
2023/06/23 07:27:15;;;;;;;1.87;1.53;;;20.80;99.90;;;;;;2034115;69;25764;-91
2023/06/23 07:30:09;;;;;;;5.53;1.60;;;21.20;99.90;;;;;;2037824;69;25813;-90
2023/06/23 07:32:59;;;;;;;1.60;1.50;;;21.60;99.90;;;;;;2031080;69;25291;-91
2023/06/23 07:35:54;;;;;;;1.70;1.60;;;21.80;99.90;;;;;;2051363;69;25217;-91
2023/06/23 07:38:48;;;;;;;2.40;1.70;;;21.70;99.90;;;;;;2041775;69;25255;-91
2023/06/23 07:41:36;;;;;;;2.30;1.60;;;21.40;99.90;;;;;;2030631;70;25867;-91
2023/06/23 07:44:31;;;;;;;6.13;1.67;;;21.30;99.90;;;;;;2005586;70;25254;-91
2023/06/23 08:02:29;;;;;;;1.70;1.60;;;21.40;99.90;;;;;;1896863;74;27096;-91
2023/06/23 08:50:28;;;;;;;2.30;1.70;;;22.10;99.90;;;;;;1919485;74;27117;-91
2023/06/23 10:23:02;;;;;;;1.50;1.40;;;24.40;99.90;;;;;;1946914;72;26094;-91
2023/06/23 10:25:54;;;;;;;1.63;1.53;;;24.40;99.90;;;;;;1949895;72;25760;-91
2023/06/23 10:29:00;;;;;;;2.77;1.47;;;24.30;99.90;;;;;;1975955;71;25646;-90
2023/06/23 10:31:55;;;;;;;2.70;1.40;;;24.50;99.90;;;;;;1983243;71;25315;-91
2023/06/23 10:34:48;;;;;;;9.00;1.43;;;24.80;99.90;;;;;;1973154;71;26246;-92
2023/06/23 10:37:39;;;;;;;3.60;1.60;;;24.40;99.90;;;;;;1973177;71;25641;-90
2023/06/23 10:41:14;;;;;;;2.20;1.67;;;24.60;99.90;;;;;;2041967;69;26241;-92
2023/06/23 11:02:04;;;;;;;1.70;1.60;;;25.40;99.90;;;;;;1944792;72;29314;-92
2023/06/23 11:09:15;;;;;;;1.63;1.53;;;25.00;99.90;;;;;;1934883;73;25289;-91
2023/06/23 12:45:09;;;;;;;1.53;1.43;;;25.50;99.90;;;;;;1921947;73;27382;-92
2023/06/23 13:55:39;;;;;;;1.22;1.12;;;25.90;99.90;;;;;;1947565;72;30439;-93
2023/06/23 14:26:31;;;;;;;1.20;1.10;;;25.50;99.90;;;;;;1908766;74;27363;-92
2023/06/23 14:51:44;;;;;;;1.40;1.30;;;25.60;99.90;;;;;;1948530;73;26235;-91
2023/06/23 14:54:32;;;;;;;1.30;1.30;;;25.30;99.90;;;;;;1960289;72;25364;-91
2023/06/23 15:00:23;;;;;;;1.60;1.50;;;25.20;99.90;;;;;;1953955;72;28016;-90
2023/06/23 15:03:12;;;;;;;1.50;1.40;;;25.40;99.90;;;;;;1921052;73;25741;-91
2023/06/23 15:06:02;;;;;;;1.40;1.30;;;25.50;99.90;;;;;;1931836;73;26208;-91
2023/06/23 15:08:51;;;;;;;1.40;1.30;;;25.60;99.90;;;;;;1929760;73;25270;-90
2023/06/23 15:11:40;;;;;;;1.67;1.40;;;25.50;99.90;;;;;;1952160;72;25277;-91
2023/06/23 15:14:28;;;;;;;2.03;1.30;;;25.40;99.90;;;;;;1941826;72;26262;-90
2023/06/23 15:17:18;;;;;;;1.43;1.30;;;25.30;99.90;;;;;;1956308;72;25278;-90
2023/06/23 15:21:18;;;;;;;1.43;1.33;;;25.30;99.90;;;;;;1939785;72;26289;-91
2023/06/23 15:24:08;;;;;;;1.20;1.20;;;25.40;99.90;;;;;;1879833;75;26376;-90
2023/06/23 15:26:57;;;;;;;1.10;1.10;;;25.60;99.90;;;;;;1912616;74;25856;-90
2023/06/23 15:29:46;;;;;;;1.40;1.30;;;25.50;99.90;;;;;;1870717;75;26861;-90
2023/06/23 15:32:35;;;;;;;1.50;1.40;;;25.70;99.90;;;;;;1895600;75;25316;-91
2023/06/23 15:35:25;;;;;;;1.73;1.27;;;25.80;99.90;;;;;;1875941;75;26827;-91
2023/06/23 15:38:14;;;;;;;2.27;1.50;;;25.80;99.90;;;;;;1884381;75;26276;-90
2023/06/23 15:41:05;;;;;;;2.00;1.30;;;25.90;99.90;;;;;;1898595;75;26356;-90
2023/06/23 15:43:54;;;;;;;3.07;1.50;;;25.90;99.90;;;;;;1904654;75;25532;-90
2023/06/23 15:46:43;;;;;;;1.40;1.30;;;26.20;99.90;;;;;;1915744;74;26209;-91
2023/06/23 15:49:32;;;;;;;1.60;1.50;;;26.40;99.90;;;;;;1888100;75;26537;-91
2023/06/23 15:52:21;;;;;;;1.43;1.33;;;26.40;99.90;;;;;;1905132;75;26200;-92
2023/06/23 17:18:04;;;;;;;1.20;1.10;;;25.00;99.90;;;;;;1943646;70;26274;-91
2023/06/23 18:48:25;;;;;;;1.60;1.50;;;23.10;99.90;;;;;;1928978;73;27004;-91
2023/06/23 19:09:29;;;;;;;2.00;1.60;;;23.20;99.90;;;;;;1972240;71;26460;-90
2023/06/23 19:12:21;;;;;;;1.40;1.30;;;23.00;99.90;;;;;;1925359;74;25742;-91
2023/06/23 19:15:11;;;;;;;1.27;1.27;;;22.90;99.90;;;;;;1920126;74;25309;-91
2023/06/23 19:17:59;;;;;;;1.50;1.40;;;22.80;99.90;;;;;;1913572;74;25260;-91
2023/06/23 19:20:48;;;;;;;1.80;1.70;;;22.80;99.90;;;;;;1914342;74;25230;-91
2023/06/23 19:23:36;;;;;;;1.40;1.30;;;22.80;99.90;;;;;;1943876;72;25239;-91
2023/06/23 19:26:26;;;;;;;9.27;1.43;;;22.70;99.90;;;;;;1945863;72;25149;-90
2023/06/23 19:29:16;;;;;;;1.63;1.53;;;22.70;99.90;;;;;;1916668;72;25225;-91
2023/06/23 19:35:04;;;;;;;1.67;1.50;;;22.50;99.90;;;;;;1937067;72;28329;-91
2023/06/23 19:37:53;;;;;;;1.77;1.60;;;22.40;99.90;;;;;;1944816;72;25205;-90
2023/06/23 19:40:41;;;;;;;1.60;1.50;;;22.10;99.90;;;;;;1959014;72;25220;-91
2023/06/23 20:11:59;;;;;;;5.03;1.60;;;21.80;99.90;;;;;;1934368;73;26829;-90
2023/06/23 20:18:43;;;;;;;1.70;1.60;;;21.00;99.90;;;;;;1988803;71;28650;-90
2023/06/23 20:21:31;;;;;;;2.20;2.00;;;20.90;99.90;;;;;;2025143;70;25219;-90
2023/06/23 20:24:24;;;;;;;1.53;1.43;;;20.90;99.90;;;;;;2018265;70;25703;-90
2023/06/23 20:27:13;;;;;;;1.77;1.67;;;20.80;99.90;;;;;;2020161;70;25257;-90
2023/06/23 20:30:03;;;;;;;1.80;1.70;;;20.70;99.90;;;;;;2019880;70;25210;-90
2023/06/23 20:36:30;;;;;;;3.30;1.90;;;20.60;99.90;;;;;;2010358;70;25765;-90
2023/06/23 20:39:19;;;;;;;4.43;2.23;;;20.50;99.90;;;;;;2024077;70;25754;-90
2023/06/23 20:42:14;;;;;;;2.00;1.90;;;20.40;99.90;;;;;;2016283;70;25710;-90
2023/06/23 20:45:03;;;;;;;2.00;1.80;;;20.30;99.90;;;;;;1986529;72;25752;-90
2023/06/23 20:47:51;;;;;;;1.97;1.77;;;20.00;99.90;;;;;;1984134;72;25160;-90
2023/06/23 20:51:03;;;;;;;3.03;1.80;;;19.90;99.90;;;;;;1989946;72;25205;-90
2023/06/23 20:53:47;;;;;;;3.87;1.90;;;19.70;99.90;;;;;;1975188;72;25304;-90
2023/06/23 20:56:38;;;;;;;3.13;1.83;;;19.50;99.90;;;;;;1969089;72;25244;-90
2023/06/23 20:59:27;;;;;;;2.27;1.90;;;19.30;99.90;;;;;;1985907;72;25546;-90
2023/06/23 21:02:16;;;;;;;2.57;2.23;;;19.10;99.90;;;;;;1985969;72;25703;-90
2023/06/23 21:05:09;;;;;;;4.80;2.10;;;19.00;99.90;;;;;;1997115;72;25155;-90
2023/06/23 21:07:58;;;;;;;2.23;2.03;;;18.90;99.90;;;;;;1974480;72;25275;-90
2023/06/23 21:13:41;;;;;;;4.80;2.30;;;18.60;99.90;;;;;;1950707;72;27126;-91
2023/06/23 21:16:32;;;;;;;3.13;2.47;;;18.40;99.90;;;;;;1866866;76;25218;-92
2023/06/23 21:48:07;;;;;;;6.33;2.93;;;17.60;99.90;;;;;;2035324;68;26370;-89
2023/06/23 21:50:57;;;;;;;4.87;3.20;;;17.10;99.90;;;;;;1946991;73;25463;-89
2023/06/23 21:53:45;;;;;;;3.70;2.83;;;17.10;99.90;;;;;;1944277;73;25154;-90
2023/06/23 21:56:33;;;;;;;3.37;2.57;;;17.10;99.90;;;;;;1923718;74;25223;-89
2023/06/23 21:59:22;;;;;;;5.17;3.10;;;17.00;99.90;;;;;;1918432;74;25341;-91
2023/06/23 22:02:11;;;;;;;3.73;2.90;;;16.90;99.90;;;;;;1930741;74;25283;-91
2023/06/23 22:07:53;;;;;;;4.00;2.80;;;16.60;99.90;;;;;;1961011;72;26997;-90
2023/06/23 22:10:43;;;;;;;8.13;2.97;;;16.50;99.90;;;;;;1920333;73;25272;-90
2023/06/23 22:16:12;;;;;;;6.23;3.20;;;16.30;99.90;;;;;;1974311;71;27107;-90
2023/06/23 22:21:51;;;;;;;5.50;2.90;;;16.10;99.90;;;;;;1941094;72;27057;-90
2023/06/23 22:24:40;;;;;;;3.70;3.03;;;16.10;99.90;;;;;;1925226;73;25186;-90
2023/06/23 22:27:29;;;;;;;4.80;3.27;;;16.00;99.90;;;;;;1929486;73;25225;-90
2023/06/23 22:30:19;;;;;;;4.17;3.33;;;16.00;99.90;;;;;;1918490;73;25832;-90
2023/06/23 22:33:07;;;;;;;4.23;3.23;;;15.90;99.90;;;;;;1938852;73;25798;-90
2023/06/23 22:35:56;;;;;;;6.13;3.13;;;15.80;99.90;;;;;;1942681;73;25635;-90
2023/06/23 22:41:40;;;;;;;6.87;3.27;;;15.70;99.90;;;;;;1946258;72;26984;-89
2023/06/23 22:44:31;;;;;;;4.30;3.37;;;15.70;99.90;;;;;;1908281;73;25292;-89
2023/06/23 22:47:19;;;;;;;6.03;4.20;;;;;;;;;;1902853;75;25207;-89
2023/06/23 22:50:10;;;;;;;4.20;3.67;;;15.50;99.90;;;;;;1909041;73;25786;-89
2023/06/23 23:09:36;;;;;;;5.57;4.27;;;15.40;99.90;;;;;;1946850;72;27053;-91
2023/06/23 23:12:26;;;;;;;5.07;3.77;;;15.20;99.90;;;;;;1921463;73;25361;-91
2023/06/23 23:15:17;;;;;;;5.90;3.67;;;15.10;99.90;;;;;;1900765;73;25642;-90
2023/06/23 23:18:07;;;;;;;5.03;3.83;;;15.10;99.90;;;;;;1918681;73;25223;-90
2023/06/23 23:20:59;;;;;;;6.97;4.07;;;15.10;99.90;;;;;;1895376;75;25293;-90
2023/06/23 23:23:52;;;;;;;6.87;4.63;;;14.90;99.90;;;;;;1918391;73;25250;-90
2023/06/23 23:26:40;;;;;;;7.03;4.40;;;14.60;99.90;;;;;;1917402;73;25622;-90
2023/06/23 23:29:40;;;;;;;9.67;4.10;;;14.50;99.90;;;;;;1895415;73;25297;-90
2023/06/23 23:32:32;;;;;;;7.47;4.60;;;14.40;99.90;;;;;;1856144;75;25728;-90
2023/06/23 23:35:25;;;;;;;4.93;3.70;;;14.50;99.90;;;;;;1837296;76;25303;-90
2023/06/23 23:54:14;;;;;;;9.67;4.37;;;14.30;99.90;;;;;;1932237;72;26978;-90
2023/06/23 23:57:04;;;;;;;7.23;4.70;;;14.20;99.90;;;;;;1888498;75;25316;-89
2023/06/23 23:59:52;;;;;;;5.43;4.33;;;14.20;99.90;;;;;;1892314;75;25766;-90
